createdAt,value
2023-04-13T00:04:55.061Z,100.00
2023-04-13T00:14:57.039Z,100.00
2023-04-13T00:25:00.030Z,100.00
2023-04-13T00:35:02.204Z,100.00
2023-04-13T00:45:04.401Z,100.00
2023-04-13T00:55:07.542Z,100.00
2023-04-13T01:05:12.783Z,100.00
2023-04-13T01:15:18.025Z,100.00
2023-04-13T01:25:51.829Z,100.00
2023-04-13T01:35:54.764Z,100.00
2023-04-13T01:46:14.287Z,100.00
2023-04-13T01:56:23.343Z,100.00
2023-04-13T02:06:26.208Z,100.00
2023-04-13T02:16:28.604Z,100.00
2023-04-13T02:26:30.500Z,100.00
2023-04-13T02:36:33.117Z,100.00
2023-04-13T02:46:35.113Z,100.00
2023-04-13T02:57:05.932Z,100.00
2023-04-13T03:07:10.615Z,100.00
2023-04-13T03:17:12.811Z,100.00
2023-04-13T03:27:14.855Z,100.00
2023-04-13T03:37:16.749Z,100.00
2023-04-13T03:47:18.786Z,100.00
2023-04-13T03:57:22.828Z,100.00
2023-04-13T04:07:24.936Z,100.00
2023-04-13T04:17:26.974Z,100.00
2023-04-13T04:27:29.522Z,100.00
2023-04-13T04:37:37.687Z,100.00
2023-04-13T04:47:43.874Z,100.00
2023-04-13T04:57:47.242Z,100.00
2023-04-13T05:07:49.131Z,100.00
2023-04-13T05:17:56.789Z,100.00
2023-04-13T05:27:59.847Z,100.00
2023-04-13T05:38:04.757Z,100.00
2023-04-13T05:48:07.820Z,81.97
2023-04-13T05:58:35.117Z,68.67
2023-04-13T06:08:37.147Z,68.42
2023-04-13T06:18:57.424Z,63.37
2023-04-13T06:29:00.296Z,61.61
2023-04-13T06:39:16.534Z,57.26
2023-04-13T06:49:25.406Z,55.44
2023-04-13T06:59:41.487Z,52.70
2023-04-13T07:09:43.463Z,51.71
2023-04-13T07:19:48.060Z,48.24
2023-04-13T07:29:53.678Z,48.60
2023-04-13T07:39:57.713Z,43.95
2023-04-13T07:49:59.930Z,45.97
2023-04-13T08:00:02.246Z,45.80
2023-04-13T08:10:04.756Z,45.09
2023-04-13T08:20:08.481Z,44.92
2023-04-13T08:30:11.902Z,42.48
2023-04-13T08:40:13.945Z,45.31
2023-04-13T08:50:19.343Z,43.79
2023-04-13T09:00:22.218Z,44.29
2023-04-13T09:10:26.883Z,40.29
2023-04-13T09:20:30.178Z,43.49
2023-04-13T09:30:32.158Z,40.63
2023-04-13T09:40:38.489Z,41.98
2023-04-13T09:50:59.611Z,39.60
2023-04-13T10:01:01.715Z,40.16
2023-04-13T10:11:04.641Z,39.78
2023-04-13T10:21:07.494Z,37.43
2023-04-13T10:31:10.817Z,38.71
2023-04-13T10:41:33.060Z,34.53
2023-04-13T10:51:44.443Z,36.79
2023-04-13T11:01:50.300Z,32.46
2023-04-13T11:11:52.570Z,31.54
2023-04-13T11:21:58.280Z,33.92
2023-04-13T11:32:00.327Z,34.23
2023-04-13T11:42:07.243Z,34.72
2023-04-13T11:52:14.126Z,35.62
2023-04-13T12:02:21.932Z,31.81
2023-04-13T12:23:05.760Z,31.97
2023-04-13T12:33:17.152Z,31.04
2023-04-13T12:43:40.976Z,31.87
2023-04-13T12:53:42.988Z,30.54
2023-04-13T13:03:46.262Z,32.04
2023-04-13T13:13:53.553Z,31.29
2023-04-13T13:23:56.534Z,31.40
2023-04-13T13:34:00.525Z,31.01
2023-04-13T13:44:02.482Z,31.44
2023-04-13T13:54:04.557Z,29.72
2023-04-13T14:04:07.607Z,32.21
2023-04-13T14:14:20.977Z,30.65
2023-04-13T14:24:26.704Z,28.53
2023-04-13T14:34:29.148Z,27.29
2023-04-13T14:44:37.373Z,26.95
2023-04-13T14:54:40.649Z,27.46
2023-04-13T15:04:45.742Z,28.37
2023-04-13T15:14:47.988Z,27.89
2023-04-13T15:25:04.494Z,28.43
2023-04-13T15:36:03.976Z,27.33
2023-04-13T15:46:23.409Z,27.85
2023-04-13T15:56:36.879Z,29.21
2023-04-13T16:06:55.814Z,29.41
2023-04-13T16:17:08.147Z,30.45
2023-04-13T16:27:10.673Z,29.25
2023-04-13T16:37:12.774Z,31.39
2023-04-13T16:47:14.894Z,30.96
2023-04-13T16:57:17.923Z,35.20
2023-04-13T17:07:23.967Z,34.14
2023-04-13T17:17:26.442Z,39.28
2023-04-13T17:27:28.782Z,44.20
2023-04-13T17:37:30.672Z,44.21
2023-04-13T17:47:39.227Z,48.98
2023-04-13T17:57:46.017Z,53.12
2023-04-13T18:07:50.740Z,59.71
2023-04-13T18:17:53.198Z,58.87
2023-04-13T18:27:57.383Z,62.56
2023-04-13T18:38:01.315Z,57.33
2023-04-13T18:48:13.050Z,62.48
2023-04-13T18:58:15.763Z,57.99
2023-04-13T19:08:18.574Z,61.02
2023-04-13T19:18:23.336Z,68.15
2023-04-13T19:28:29.986Z,64.64
2023-04-13T19:38:33.241Z,73.31
2023-04-13T19:48:35.956Z,63.31
2023-04-13T19:58:39.485Z,61.94
2023-04-13T20:08:45.833Z,62.12
2023-04-13T20:18:51.781Z,63.69
2023-04-13T20:29:00.836Z,64.07
2023-04-13T20:39:24.676Z,66.47
2023-04-13T20:49:28.553Z,68.27
2023-04-13T20:59:34.408Z,69.66
2023-04-13T21:09:36.569Z,71.27
2023-04-13T21:19:38.555Z,73.28
2023-04-13T21:29:40.575Z,74.52
2023-04-13T21:39:43.455Z,76.57
2023-04-13T21:49:45.375Z,77.60
2023-04-13T21:59:47.382Z,79.30
2023-04-13T22:09:58.230Z,81.14
2023-04-13T22:20:00.235Z,82.60
2023-04-13T22:30:02.265Z,83.08
2023-04-13T22:40:07.867Z,85.62
2023-04-13T22:50:09.952Z,87.28
2023-04-13T23:00:12.613Z,88.60
2023-04-13T23:10:17.162Z,89.14
2023-04-13T23:20:21.686Z,89.40
2023-04-13T23:30:23.843Z,90.08
2023-04-13T23:40:25.768Z,90.98
2023-04-13T23:50:27.736Z,91.00
